sensor_id;sensor_type;location;lat;lon;timestamp;temperature;humidity
14277;DHT22;7222;57.346;12.150;2023-04-06T00:00:14;3.20;99.90
14277;DHT22;7222;57.346;12.150;2023-04-06T00:02:42;3.20;99.90
14277;DHT22;7222;57.346;12.150;2023-04-06T00:05:09;3.20;99.90
14277;DHT22;7222;57.346;12.150;2023-04-06T00:07:35;3.10;99.90
14277;DHT22;7222;57.346;12.150;2023-04-06T00:10:03;3.10;99.90
14277;DHT22;7222;57.346;12.150;2023-04-06T00:12:30;3.10;99.90
14277;DHT22;7222;57.346;12.150;2023-04-06T00:14:59;3.10;99.90
14277;DHT22;7222;57.346;12.150;2023-04-06T00:17:27;3.10;99.90
14277;DHT22;7222;57.346;12.150;2023-04-06T00:19:53;3.10;99.90
14277;DHT22;7222;57.346;12.150;2023-04-06T00:22:20;3.10;99.90
14277;DHT22;7222;57.346;12.150;2023-04-06T00:24:47;3.10;99.90
14277;DHT22;7222;57.346;12.150;2023-04-06T00:27:14;3.00;99.90
14277;DHT22;7222;57.346;12.150;2023-04-06T00:29:41;3.00;99.90
14277;DHT22;7222;57.346;12.150;2023-04-06T00:32:09;3.00;99.90
14277;DHT22;7222;57.346;12.150;2023-04-06T00:34:36;3.00;99.90
14277;DHT22;7222;57.346;12.150;2023-04-06T00:37:03;2.90;99.90
14277;DHT22;7222;57.346;12.150;2023-04-06T00:39:30;2.90;99.90
14277;DHT22;7222;57.346;12.150;2023-04-06T00:41:57;2.90;99.90
14277;DHT22;7222;57.346;12.150;2023-04-06T00:44:24;2.90;99.90
14277;DHT22;7222;57.346;12.150;2023-04-06T00:46:51;2.90;99.90
14277;DHT22;7222;57.346;12.150;2023-04-06T00:49:20;2.80;99.90
14277;DHT22;7222;57.346;12.150;2023-04-06T00:51:47;2.80;99.90
14277;DHT22;7222;57.346;12.150;2023-04-06T00:54:13;2.80;99.90
14277;DHT22;7222;57.346;12.150;2023-04-06T00:56:41;2.70;99.90
14277;DHT22;7222;57.346;12.150;2023-04-06T00:59:10;2.70;99.90
14277;DHT22;7222;57.346;12.150;2023-04-06T01:01:37;2.70;99.90
14277;DHT22;7222;57.346;12.150;2023-04-06T01:04:03;2.70;99.90
14277;DHT22;7222;57.346;12.150;2023-04-06T01:06:32;2.70;99.90
14277;DHT22;7222;57.346;12.150;2023-04-06T01:08:59;2.60;99.90
14277;DHT22;7222;57.346;12.150;2023-04-06T01:11:26;2.60;99.90
14277;DHT22;7222;57.346;12.150;2023-04-06T01:13:53;2.50;1.00
14277;DHT22;7222;57.346;12.150;2023-04-06T01:16:21;2.50;1.00
14277;DHT22;7222;57.346;12.150;2023-04-06T01:18:48;2.50;1.00
14277;DHT22;7222;57.346;12.150;2023-04-06T01:21:15;2.50;1.00
14277;DHT22;7222;57.346;12.150;2023-04-06T01:23:45;2.40;1.00
14277;DHT22;7222;57.346;12.150;2023-04-06T01:26:12;2.40;1.00
14277;DHT22;7222;57.346;12.150;2023-04-06T01:28:39;2.40;1.00
14277;DHT22;7222;57.346;12.150;2023-04-06T01:31:07;2.30;1.00
14277;DHT22;7222;57.346;12.150;2023-04-06T01:33:34;2.30;1.00
14277;DHT22;7222;57.346;12.150;2023-04-06T01:36:01;2.30;1.00
14277;DHT22;7222;57.346;12.150;2023-04-06T01:38:28;2.30;1.00
14277;DHT22;7222;57.346;12.150;2023-04-06T01:40:57;2.20;1.00
14277;DHT22;7222;57.346;12.150;2023-04-06T01:43:23;2.20;1.00
14277;DHT22;7222;57.346;12.150;2023-04-06T01:45:50;2.10;1.00
14277;DHT22;7222;57.346;12.150;2023-04-06T01:48:18;2.10;1.00
14277;DHT22;7222;57.346;12.150;2023-04-06T01:50:44;2.10;1.00
14277;DHT22;7222;57.346;12.150;2023-04-06T01:53:11;2.10;1.00
14277;DHT22;7222;57.346;12.150;2023-04-06T01:55:38;2.10;1.00
14277;DHT22;7222;57.346;12.150;2023-04-06T01:58:07;2.00;1.00
14277;DHT22;7222;57.346;12.150;2023-04-06T02:00:34;2.00;1.00
14277;DHT22;7222;57.346;12.150;2023-04-06T02:03:01;2.00;1.00
14277;DHT22;7222;57.346;12.150;2023-04-06T02:05:30;2.00;1.00
14277;DHT22;7222;57.346;12.150;2023-04-06T02:07:57;2.00;1.00
14277;DHT22;7222;57.346;12.150;2023-04-06T02:10:24;1.90;1.00
14277;DHT22;7222;57.346;12.150;2023-04-06T02:12:50;1.90;1.00
14277;DHT22;7222;57.346;12.150;2023-04-06T02:15:19;1.90;1.00
14277;DHT22;7222;57.346;12.150;2023-04-06T02:17:45;1.90;1.00
14277;DHT22;7222;57.346;12.150;2023-04-06T02:20:13;1.80;1.00
14277;DHT22;7222;57.346;12.150;2023-04-06T02:22:40;1.80;1.00
14277;DHT22;7222;57.346;12.150;2023-04-06T02:25:07;1.80;1.00
14277;DHT22;7222;57.346;12.150;2023-04-06T02:27:35;1.80;1.00
14277;DHT22;7222;57.346;12.150;2023-04-06T02:30:03;1.80;1.00
14277;DHT22;7222;57.346;12.150;2023-04-06T02:32:31;1.80;1.00
14277;DHT22;7222;57.346;12.150;2023-04-06T02:35:00;1.80;1.00
14277;DHT22;7222;57.346;12.150;2023-04-06T02:37:27;1.70;1.00
14277;DHT22;7222;57.346;12.150;2023-04-06T02:39:54;1.70;1.00
14277;DHT22;7222;57.346;12.150;2023-04-06T02:42:21;1.70;1.00
14277;DHT22;7222;57.346;12.150;2023-04-06T02:44:47;1.70;1.00
14277;DHT22;7222;57.346;12.150;2023-04-06T02:47:14;1.70;1.00
14277;DHT22;7222;57.346;12.150;2023-04-06T02:49:43;1.70;1.00
14277;DHT22;7222;57.346;12.150;2023-04-06T02:52:09;1.70;1.00
14277;DHT22;7222;57.346;12.150;2023-04-06T02:54:36;1.70;1.00
14277;DHT22;7222;57.346;12.150;2023-04-06T02:57:03;1.70;1.00
14277;DHT22;7222;57.346;12.150;2023-04-06T02:59:31;1.70;1.00
14277;DHT22;7222;57.346;12.150;2023-04-06T03:01:58;1.70;1.00
14277;DHT22;7222;57.346;12.150;2023-04-06T03:04:25;1.70;1.00
14277;DHT22;7222;57.346;12.150;2023-04-06T03:06:54;1.70;1.00
14277;DHT22;7222;57.346;12.150;2023-04-06T03:09:21;1.70;1.00
14277;DHT22;7222;57.346;12.150;2023-04-06T03:11:48;1.60;1.00
14277;DHT22;7222;57.346;12.150;2023-04-06T03:14:14;1.60;24.30
14277;DHT22;7222;57.346;12.150;2023-04-06T03:16:43;1.60;1.00
14277;DHT22;7222;57.346;12.150;2023-04-06T03:19:10;1.60;1.00
14277;DHT22;7222;57.346;12.150;2023-04-06T03:21:37;1.70;49.50
14277;DHT22;7222;57.346;12.150;2023-04-06T03:24:06;1.60;78.90
14277;DHT22;7222;57.346;12.150;2023-04-06T03:26:33;1.60;99.90
14277;DHT22;7222;57.346;12.150;2023-04-06T03:29:00;1.60;38.20
14277;DHT22;7222;57.346;12.150;2023-04-06T03:31:27;1.60;99.90
14277;DHT22;7222;57.346;12.150;2023-04-06T03:33:54;1.60;40.20
14277;DHT22;7222;57.346;12.150;2023-04-06T03:36:21;1.60;1.00
14277;DHT22;7222;57.346;12.150;2023-04-06T03:38:49;1.50;99.90
14277;DHT22;7222;57.346;12.150;2023-04-06T03:41:20;1.60;68.60
14277;DHT22;7222;57.346;12.150;2023-04-06T03:43:47;1.60;99.90
14277;DHT22;7222;57.346;12.150;2023-04-06T03:46:14;1.60;59.00
14277;DHT22;7222;57.346;12.150;2023-04-06T03:48:41;1.60;99.90
14277;DHT22;7222;57.346;12.150;2023-04-06T03:51:08;1.60;93.30
14277;DHT22;7222;57.346;12.150;2023-04-06T03:53:35;1.60;98.80
14277;DHT22;7222;57.346;12.150;2023-04-06T03:56:03;1.60;99.90
14277;DHT22;7222;57.346;12.150;2023-04-06T03:58:32;1.60;99.90
14277;DHT22;7222;57.346;12.150;2023-04-06T04:01:00;1.60;99.90
14277;DHT22;7222;57.346;12.150;2023-04-06T04:03:26;1.70;51.00
14277;DHT22;7222;57.346;12.150;2023-04-06T04:05:53;1.70;48.10
14277;DHT22;7222;57.346;12.150;2023-04-06T04:08:21;1.70;47.70
14277;DHT22;7222;57.346;12.150;2023-04-06T04:10:48;1.60;99.90
14277;DHT22;7222;57.346;12.150;2023-04-06T04:13:15;1.60;99.90
14277;DHT22;7222;57.346;12.150;2023-04-06T04:15:44;1.60;99.90
14277;DHT22;7222;57.346;12.150;2023-04-06T04:18:12;1.60;99.90
14277;DHT22;7222;57.346;12.150;2023-04-06T04:20:40;1.60;99.90
14277;DHT22;7222;57.346;12.150;2023-04-06T04:23:07;1.60;99.90
14277;DHT22;7222;57.346;12.150;2023-04-06T04:25:34;1.60;99.90
14277;DHT22;7222;57.346;12.150;2023-04-06T04:28:01;1.60;99.90
14277;DHT22;7222;57.346;12.150;2023-04-06T04:30:27;1.60;99.90
14277;DHT22;7222;57.346;12.150;2023-04-06T04:32:56;1.60;99.90
14277;DHT22;7222;57.346;12.150;2023-04-06T04:35:23;1.60;99.90
14277;DHT22;7222;57.346;12.150;2023-04-06T04:37:50;1.60;99.90
14277;DHT22;7222;57.346;12.150;2023-04-06T04:40:16;1.60;99.90
14277;DHT22;7222;57.346;12.150;2023-04-06T04:42:43;1.60;99.90
14277;DHT22;7222;57.346;12.150;2023-04-06T04:45:10;1.60;99.90
14277;DHT22;7222;57.346;12.150;2023-04-06T04:47:38;1.60;99.90
14277;DHT22;7222;57.346;12.150;2023-04-06T04:50:07;1.60;99.90
14277;DHT22;7222;57.346;12.150;2023-04-06T04:52:34;1.60;99.90
14277;DHT22;7222;57.346;12.150;2023-04-06T04:55:01;1.70;1.00
14277;DHT22;7222;57.346;12.150;2023-04-06T04:57:28;1.60;1.00
14277;DHT22;7222;57.346;12.150;2023-04-06T04:59:55;1.60;1.00
14277;DHT22;7222;57.346;12.150;2023-04-06T05:02:22;1.70;99.90
14277;DHT22;7222;57.346;12.150;2023-04-06T05:04:49;1.60;99.90
14277;DHT22;7222;57.346;12.150;2023-04-06T05:07:17;1.70;1.00
14277;DHT22;7222;57.346;12.150;2023-04-06T05:09:46;1.70;1.00
14277;DHT22;7222;57.346;12.150;2023-04-06T05:12:13;1.70;1.00
14277;DHT22;7222;57.346;12.150;2023-04-06T05:14:40;1.60;1.00
14277;DHT22;7222;57.346;12.150;2023-04-06T05:17:07;1.70;1.00
14277;DHT22;7222;57.346;12.150;2023-04-06T05:19:34;1.70;1.00
14277;DHT22;7222;57.346;12.150;2023-04-06T05:22:01;1.70;1.00
14277;DHT22;7222;57.346;12.150;2023-04-06T05:24:30;1.80;1.00
14277;DHT22;7222;57.346;12.150;2023-04-06T05:26:56;1.70;99.90
14277;DHT22;7222;57.346;12.150;2023-04-06T05:29:23;1.80;1.00
14277;DHT22;7222;57.346;12.150;2023-04-06T05:31:51;1.80;1.00
14277;DHT22;7222;57.346;12.150;2023-04-06T05:34:18;1.80;1.00
14277;DHT22;7222;57.346;12.150;2023-04-06T05:36:45;1.80;1.00
14277;DHT22;7222;57.346;12.150;2023-04-06T05:39:12;1.80;1.00
14277;DHT22;7222;57.346;12.150;2023-04-06T05:41:41;1.80;1.00
14277;DHT22;7222;57.346;12.150;2023-04-06T05:44:08;1.90;99.90
14277;DHT22;7222;57.346;12.150;2023-04-06T05:46:35;1.80;99.90
14277;DHT22;7222;57.346;12.150;2023-04-06T05:49:01;1.90;1.00
14277;DHT22;7222;57.346;12.150;2023-04-06T05:51:28;2.00;1.00
14277;DHT22;7222;57.346;12.150;2023-04-06T05:53:55;2.00;99.90
14277;DHT22;7222;57.346;12.150;2023-04-06T05:56:23;2.10;99.90
14277;DHT22;7222;57.346;12.150;2023-04-06T05:58:52;2.10;1.00
14277;DHT22;7222;57.346;12.150;2023-04-06T06:01:19;2.10;99.90
14277;DHT22;7222;57.346;12.150;2023-04-06T06:03:46;2.10;99.90
14277;DHT22;7222;57.346;12.150;2023-04-06T06:06:12;2.10;99.90
14277;DHT22;7222;57.346;12.150;2023-04-06T06:08:39;2.10;99.90
14277;DHT22;7222;57.346;12.150;2023-04-06T06:11:06;2.10;1.00
14277;DHT22;7222;57.346;12.150;2023-04-06T06:13:33;2.20;91.80
14277;DHT22;7222;57.346;12.150;2023-04-06T06:16:02;2.10;99.90
14277;DHT22;7222;57.346;12.150;2023-04-06T06:18:30;2.10;99.90
14277;DHT22;7222;57.346;12.150;2023-04-06T06:20:57;2.20;99.90
14277;DHT22;7222;57.346;12.150;2023-04-06T06:23:24;2.20;1.00
14277;DHT22;7222;57.346;12.150;2023-04-06T06:25:51;2.20;1.00
14277;DHT22;7222;57.346;12.150;2023-04-06T06:28:19;2.20;99.90
14277;DHT22;7222;57.346;12.150;2023-04-06T06:30:45;2.20;99.90
14277;DHT22;7222;57.346;12.150;2023-04-06T06:33:14;2.20;1.00
14277;DHT22;7222;57.346;12.150;2023-04-06T06:35:41;2.30;99.90
14277;DHT22;7222;57.346;12.150;2023-04-06T06:38:07;2.30;1.00
14277;DHT22;7222;57.346;12.150;2023-04-06T06:40:35;2.30;1.00
14277;DHT22;7222;57.346;12.150;2023-04-06T06:43:02;2.30;99.90
14277;DHT22;7222;57.346;12.150;2023-04-06T06:45:29;2.10;48.60
14277;DHT22;7222;57.346;12.150;2023-04-06T06:47:56;2.30;99.90
14277;DHT22;7222;57.346;12.150;2023-04-06T06:50:24;2.40;99.90
14277;DHT22;7222;57.346;12.150;2023-04-06T06:52:51;2.40;1.00
14277;DHT22;7222;57.346;12.150;2023-04-06T06:55:18;2.40;1.00
14277;DHT22;7222;57.346;12.150;2023-04-06T06:57:46;2.40;1.00
14277;DHT22;7222;57.346;12.150;2023-04-06T07:00:13;2.50;8.60
14277;DHT22;7222;57.346;12.150;2023-04-06T07:02:41;2.50;1.00
14277;DHT22;7222;57.346;12.150;2023-04-06T07:05:08;2.60;1.00
14277;DHT22;7222;57.346;12.150;2023-04-06T07:07:36;2.60;99.90
14277;DHT22;7222;57.346;12.150;2023-04-06T07:10:04;2.70;72.10
14277;DHT22;7222;57.346;12.150;2023-04-06T07:12:31;2.80;8.90
14277;DHT22;7222;57.346;12.150;2023-04-06T07:14:58;2.80;1.00
14277;DHT22;7222;57.346;12.150;2023-04-06T07:17:25;2.80;1.00
14277;DHT22;7222;57.346;12.150;2023-04-06T07:19:52;3.00;1.00
14277;DHT22;7222;57.346;12.150;2023-04-06T07:22:18;3.00;99.90
14277;DHT22;7222;57.346;12.150;2023-04-06T07:24:47;3.10;1.00
14277;DHT22;7222;57.346;12.150;2023-04-06T07:27:14;3.10;1.00
14277;DHT22;7222;57.346;12.150;2023-04-06T07:29:41;3.30;1.00
14277;DHT22;7222;57.346;12.150;2023-04-06T07:32:08;3.30;99.90
14277;DHT22;7222;57.346;12.150;2023-04-06T07:34:35;3.40;99.90
14277;DHT22;7222;57.346;12.150;2023-04-06T07:37:02;3.40;99.10
14277;DHT22;7222;57.346;12.150;2023-04-06T07:39:29;3.40;99.90
14277;DHT22;7222;57.346;12.150;2023-04-06T07:41:58;3.60;1.00
14277;DHT22;7222;57.346;12.150;2023-04-06T07:44:25;3.40;99.90
14277;DHT22;7222;57.346;12.150;2023-04-06T07:46:52;3.50;1.00
14277;DHT22;7222;57.346;12.150;2023-04-06T07:49:19;3.40;1.00
14277;DHT22;7222;57.346;12.150;2023-04-06T07:51:46;3.80;99.90
14277;DHT22;7222;57.346;12.150;2023-04-06T07:54:13;3.80;32.00
14277;DHT22;7222;57.346;12.150;2023-04-06T07:56:40;3.80;1.00
14277;DHT22;7222;57.346;12.150;2023-04-06T07:59:08;3.90;1.00
14277;DHT22;7222;57.346;12.150;2023-04-06T08:01:36;4.10;1.00
14277;DHT22;7222;57.346;12.150;2023-04-06T08:04:03;4.10;1.00
14277;DHT22;7222;57.346;12.150;2023-04-06T08:06:30;4.30;99.90
14277;DHT22;7222;57.346;12.150;2023-04-06T08:08:57;4.20;99.90
14277;DHT22;7222;57.346;12.150;2023-04-06T08:11:24;4.50;1.00
14277;DHT22;7222;57.346;12.150;2023-04-06T08:13:52;5.00;99.90
14277;DHT22;7222;57.346;12.150;2023-04-06T08:16:20;5.30;1.00
14277;DHT22;7222;57.346;12.150;2023-04-06T08:18:47;5.40;99.90
14277;DHT22;7222;57.346;12.150;2023-04-06T08:21:14;5.00;99.90
14277;DHT22;7222;57.346;12.150;2023-04-06T08:23:41;4.80;99.90
14277;DHT22;7222;57.346;12.150;2023-04-06T08:26:07;4.90;99.90
14277;DHT22;7222;57.346;12.150;2023-04-06T08:28:35;4.90;99.90
14277;DHT22;7222;57.346;12.150;2023-04-06T08:31:04;5.30;99.90
14277;DHT22;7222;57.346;12.150;2023-04-06T08:33:33;5.30;99.90
14277;DHT22;7222;57.346;12.150;2023-04-06T08:36:07;5.50;99.90
14277;DHT22;7222;57.346;12.150;2023-04-06T08:38:35;5.50;99.90
14277;DHT22;7222;57.346;12.150;2023-04-06T08:41:07;5.60;99.90
14277;DHT22;7222;57.346;12.150;2023-04-06T08:43:41;5.50;99.90
14277;DHT22;7222;57.346;12.150;2023-04-06T08:46:09;5.40;99.90
14277;DHT22;7222;57.346;12.150;2023-04-06T08:48:38;5.30;99.90
14277;DHT22;7222;57.346;12.150;2023-04-06T08:51:05;5.30;99.90
14277;DHT22;7222;57.346;12.150;2023-04-06T08:53:32;5.40;99.90
14277;DHT22;7222;57.346;12.150;2023-04-06T08:56:00;5.30;1.00
14277;DHT22;7222;57.346;12.150;2023-04-06T08:58:34;5.90;99.90
14277;DHT22;7222;57.346;12.150;2023-04-06T09:01:02;6.20;99.90
14277;DHT22;7222;57.346;12.150;2023-04-06T09:03:36;6.00;99.90
14277;DHT22;7222;57.346;12.150;2023-04-06T09:06:06;6.20;99.90
14277;DHT22;7222;57.346;12.150;2023-04-06T09:08:33;6.40;99.90
14277;DHT22;7222;57.346;12.150;2023-04-06T09:11:01;6.30;16.10
14277;DHT22;7222;57.346;12.150;2023-04-06T09:13:28;6.50;99.90
14277;DHT22;7222;57.346;12.150;2023-04-06T09:15:59;6.60;10.60
14277;DHT22;7222;57.346;12.150;2023-04-06T09:18:30;6.70;99.90
14277;DHT22;7222;57.346;12.150;2023-04-06T09:20:59;7.00;1.00
14277;DHT22;7222;57.346;12.150;2023-04-06T09:23:28;7.10;4.20
14277;DHT22;7222;57.346;12.150;2023-04-06T09:26:05;6.90;1.00
14277;DHT22;7222;57.346;12.150;2023-04-06T09:28:44;7.20;1.00
14277;DHT22;7222;57.346;12.150;2023-04-06T09:31:12;7.40;99.90
14277;DHT22;7222;57.346;12.150;2023-04-06T09:33:41;7.40;1.00
14277;DHT22;7222;57.346;12.150;2023-04-06T09:36:08;6.90;99.90
14277;DHT22;7222;57.346;12.150;2023-04-06T09:38:51;6.90;1.00
14277;DHT22;7222;57.346;12.150;2023-04-06T09:41:21;7.10;99.90
14277;DHT22;7222;57.346;12.150;2023-04-06T09:43:49;7.20;1.00
14277;DHT22;7222;57.346;12.150;2023-04-06T09:46:17;7.20;99.90
14277;DHT22;7222;57.346;12.150;2023-04-06T09:48:47;7.00;1.00
14277;DHT22;7222;57.346;12.150;2023-04-06T09:51:18;6.80;1.00
14277;DHT22;7222;57.346;12.150;2023-04-06T09:53:51;6.80;1.00
14277;DHT22;7222;57.346;12.150;2023-04-06T09:56:20;7.10;99.90
14277;DHT22;7222;57.346;12.150;2023-04-06T09:58:56;7.30;1.00
14277;DHT22;7222;57.346;12.150;2023-04-06T10:01:26;7.40;1.00
14277;DHT22;7222;57.346;12.150;2023-04-06T10:04:03;7.50;1.00
14277;DHT22;7222;57.346;12.150;2023-04-06T10:06:33;8.10;1.00
14277;DHT22;7222;57.346;12.150;2023-04-06T10:09:02;8.40;1.00
14277;DHT22;7222;57.346;12.150;2023-04-06T10:11:31;8.00;94.70
14277;DHT22;7222;57.346;12.150;2023-04-06T10:13:58;8.00;99.90
14277;DHT22;7222;57.346;12.150;2023-04-06T10:16:25;8.10;99.90
14277;DHT22;7222;57.346;12.150;2023-04-06T10:18:58;8.50;1.00
14277;DHT22;7222;57.346;12.150;2023-04-06T10:21:27;8.60;1.00
14277;DHT22;7222;57.346;12.150;2023-04-06T10:23:59;8.30;1.00
14277;DHT22;7222;57.346;12.150;2023-04-06T10:26:28;8.00;1.00
14277;DHT22;7222;57.346;12.150;2023-04-06T10:29:02;8.30;99.90
14277;DHT22;7222;57.346;12.150;2023-04-06T10:31:30;8.10;99.90
14277;DHT22;7222;57.346;12.150;2023-04-06T10:33:57;8.70;72.10
14277;DHT22;7222;57.346;12.150;2023-04-06T10:36:26;8.90;99.90
14277;DHT22;7222;57.346;12.150;2023-04-06T10:38:55;8.70;1.00
14277;DHT22;7222;57.346;12.150;2023-04-06T10:41:23;8.60;99.90
14277;DHT22;7222;57.346;12.150;2023-04-06T10:43:57;8.70;99.90
14277;DHT22;7222;57.346;12.150;2023-04-06T10:46:28;8.50;1.00
14277;DHT22;7222;57.346;12.150;2023-04-06T10:48:55;7.90;99.90
14277;DHT22;7222;57.346;12.150;2023-04-06T10:51:25;8.10;99.90
14277;DHT22;7222;57.346;12.150;2023-04-06T10:53:54;8.10;99.90
14277;DHT22;7222;57.346;12.150;2023-04-06T10:56:22;8.00;99.90
14277;DHT22;7222;57.346;12.150;2023-04-06T10:58:52;8.20;99.90
14277;DHT22;7222;57.346;12.150;2023-04-06T11:01:23;8.10;99.90
14277;DHT22;7222;57.346;12.150;2023-04-06T11:03:53;8.10;57.20
14277;DHT22;7222;57.346;12.150;2023-04-06T11:06:21;8.00;1.00
14277;DHT22;7222;57.346;12.150;2023-04-06T11:08:49;8.20;1.00
14277;DHT22;7222;57.346;12.150;2023-04-06T11:11:17;8.60;1.00
14277;DHT22;7222;57.346;12.150;2023-04-06T11:13:48;8.60;1.00
14277;DHT22;7222;57.346;12.150;2023-04-06T11:16:16;8.80;1.00
14277;DHT22;7222;57.346;12.150;2023-04-06T11:18:53;8.60;1.00
14277;DHT22;7222;57.346;12.150;2023-04-06T11:21:29;9.30;1.00
14277;DHT22;7222;57.346;12.150;2023-04-06T11:24:04;9.30;1.00
14277;DHT22;7222;57.346;12.150;2023-04-06T11:26:31;9.10;1.00
14277;DHT22;7222;57.346;12.150;2023-04-06T11:28:58;9.50;99.90
14277;DHT22;7222;57.346;12.150;2023-04-06T11:31:25;9.70;99.90
14277;DHT22;7222;57.346;12.150;2023-04-06T11:33:57;9.50;99.90
14277;DHT22;7222;57.346;12.150;2023-04-06T11:36:27;9.20;99.90
14277;DHT22;7222;57.346;12.150;2023-04-06T11:38:56;9.30;99.90
14277;DHT22;7222;57.346;12.150;2023-04-06T11:41:23;8.70;99.90
14277;DHT22;7222;57.346;12.150;2023-04-06T11:43:55;9.40;99.90
14277;DHT22;7222;57.346;12.150;2023-04-06T11:46:22;9.50;99.90
14277;DHT22;7222;57.346;12.150;2023-04-06T11:48:49;9.80;99.90
14277;DHT22;7222;57.346;12.150;2023-04-06T11:51:23;9.40;99.90
14277;DHT22;7222;57.346;12.150;2023-04-06T11:53:50;9.00;99.90
14277;DHT22;7222;57.346;12.150;2023-04-06T11:56:26;9.00;99.90
14277;DHT22;7222;57.346;12.150;2023-04-06T11:58:54;9.40;99.90
14277;DHT22;7222;57.346;12.150;2023-04-06T12:01:22;10.10;99.90
14277;DHT22;7222;57.346;12.150;2023-04-06T12:03:49;10.10;99.90
14277;DHT22;7222;57.346;12.150;2023-04-06T12:06:16;10.10;99.90
14277;DHT22;7222;57.346;12.150;2023-04-06T12:08:45;9.50;99.90
14277;DHT22;7222;57.346;12.150;2023-04-06T12:11:12;9.60;99.90
14277;DHT22;7222;57.346;12.150;2023-04-06T12:13:39;9.80;57.60
14277;DHT22;7222;57.346;12.150;2023-04-06T12:16:06;10.10;49.90
14277;DHT22;7222;57.346;12.150;2023-04-06T12:18:33;10.50;36.20
14277;DHT22;7222;57.346;12.150;2023-04-06T12:21:00;9.90;1.00
14277;DHT22;7222;57.346;12.150;2023-04-06T12:23:26;10.10;1.00
14277;DHT22;7222;57.346;12.150;2023-04-06T12:25:55;10.10;1.00
14277;DHT22;7222;57.346;12.150;2023-04-06T12:28:21;10.60;1.00
14277;DHT22;7222;57.346;12.150;2023-04-06T12:30:52;10.60;1.00
14277;DHT22;7222;57.346;12.150;2023-04-06T12:33:19;10.60;1.00
14277;DHT22;7222;57.346;12.150;2023-04-06T12:35:46;10.60;1.00
14277;DHT22;7222;57.346;12.150;2023-04-06T12:38:13;10.10;1.00
14277;DHT22;7222;57.346;12.150;2023-04-06T12:40:41;10.80;1.00
14277;DHT22;7222;57.346;12.150;2023-04-06T12:43:10;10.70;18.20
14277;DHT22;7222;57.346;12.150;2023-04-06T12:45:38;10.90;1.00
14277;DHT22;7222;57.346;12.150;2023-04-06T12:48:05;10.60;1.00
14277;DHT22;7222;57.346;12.150;2023-04-06T12:50:32;11.20;1.00
14277;DHT22;7222;57.346;12.150;2023-04-06T12:52:59;11.20;1.00
14277;DHT22;7222;57.346;12.150;2023-04-06T12:55:29;10.60;1.00
14277;DHT22;7222;57.346;12.150;2023-04-06T12:57:56;10.50;1.00
14277;DHT22;7222;57.346;12.150;2023-04-06T13:00:25;10.70;1.00
14277;DHT22;7222;57.346;12.150;2023-04-06T13:02:52;11.20;1.00
14277;DHT22;7222;57.346;12.150;2023-04-06T13:05:19;10.70;1.00
14277;DHT22;7222;57.346;12.150;2023-04-06T13:07:46;10.60;1.00
14277;DHT22;7222;57.346;12.150;2023-04-06T13:10:13;10.30;1.00
14277;DHT22;7222;57.346;12.150;2023-04-06T13:12:40;10.20;1.00
14277;DHT22;7222;57.346;12.150;2023-04-06T13:15:08;10.10;1.00
14277;DHT22;7222;57.346;12.150;2023-04-06T13:17:36;9.70;1.00
14277;DHT22;7222;57.346;12.150;2023-04-06T13:20:04;9.90;1.00
14277;DHT22;7222;57.346;12.150;2023-04-06T13:22:31;9.60;1.00
14277;DHT22;7222;57.346;12.150;2023-04-06T13:24:58;9.70;1.00
14277;DHT22;7222;57.346;12.150;2023-04-06T13:27:25;9.80;1.00
14277;DHT22;7222;57.346;12.150;2023-04-06T13:29:53;9.90;1.00
14277;DHT22;7222;57.346;12.150;2023-04-06T13:32:21;10.40;1.00
14277;DHT22;7222;57.346;12.150;2023-04-06T13:34:49;10.50;1.00
14277;DHT22;7222;57.346;12.150;2023-04-06T13:37:19;11.00;1.00
14277;DHT22;7222;57.346;12.150;2023-04-06T13:39:46;11.20;1.00
14277;DHT22;7222;57.346;12.150;2023-04-06T13:42:13;11.30;1.00
14277;DHT22;7222;57.346;12.150;2023-04-06T13:44:41;11.80;1.00
14277;DHT22;7222;57.346;12.150;2023-04-06T13:47:08;12.20;1.00
14277;DHT22;7222;57.346;12.150;2023-04-06T13:49:35;12.30;1.00
14277;DHT22;7222;57.346;12.150;2023-04-06T13:52:04;11.90;1.00
14277;DHT22;7222;57.346;12.150;2023-04-06T13:54:31;11.60;1.00
14277;DHT22;7222;57.346;12.150;2023-04-06T13:56:58;11.80;1.00
14277;DHT22;7222;57.346;12.150;2023-04-06T13:59:31;11.90;1.00
14277;DHT22;7222;57.346;12.150;2023-04-06T14:01:58;11.30;1.00
14277;DHT22;7222;57.346;12.150;2023-04-06T14:04:25;11.20;1.00
14277;DHT22;7222;57.346;12.150;2023-04-06T14:06:52;11.10;1.00
14277;DHT22;7222;57.346;12.150;2023-04-06T14:09:20;11.10;1.00
14277;DHT22;7222;57.346;12.150;2023-04-06T14:11:48;11.60;1.00
14277;DHT22;7222;57.346;12.150;2023-04-06T14:14:15;11.60;1.00
14277;DHT22;7222;57.346;12.150;2023-04-06T14:16:42;11.50;1.00
14277;DHT22;7222;57.346;12.150;2023-04-06T14:19:09;11.70;1.00
14277;DHT22;7222;57.346;12.150;2023-04-06T14:21:37;11.20;1.00
14277;DHT22;7222;57.346;12.150;2023-04-06T14:24:05;11.10;1.00
14277;DHT22;7222;57.346;12.150;2023-04-06T14:26:34;11.20;1.00
14277;DHT22;7222;57.346;12.150;2023-04-06T14:29:02;11.60;1.00
14277;DHT22;7222;57.346;12.150;2023-04-06T14:31:29;11.70;1.00
14277;DHT22;7222;57.346;12.150;2023-04-06T14:33:56;11.70;1.00
14277;DHT22;7222;57.346;12.150;2023-04-06T14:36:24;12.00;1.00
14277;DHT22;7222;57.346;12.150;2023-04-06T14:38:52;12.40;1.00
14277;DHT22;7222;57.346;12.150;2023-04-06T14:41:22;12.00;1.00
14277;DHT22;7222;57.346;12.150;2023-04-06T14:43:51;12.00;1.00
14277;DHT22;7222;57.346;12.150;2023-04-06T14:46:18;11.90;1.00
14277;DHT22;7222;57.346;12.150;2023-04-06T14:48:47;11.90;1.00
14277;DHT22;7222;57.346;12.150;2023-04-06T14:51:14;11.70;1.00
14277;DHT22;7222;57.346;12.150;2023-04-06T14:53:42;11.30;1.00
14277;DHT22;7222;57.346;12.150;2023-04-06T14:56:09;11.50;1.00
14277;DHT22;7222;57.346;12.150;2023-04-06T14:58:36;11.90;1.00
14277;DHT22;7222;57.346;12.150;2023-04-06T15:01:04;12.30;1.00
14277;DHT22;7222;57.346;12.150;2023-04-06T15:03:32;11.90;1.00
14277;DHT22;7222;57.346;12.150;2023-04-06T15:05:59;12.00;1.00
14277;DHT22;7222;57.346;12.150;2023-04-06T15:08:26;11.90;1.00
14277;DHT22;7222;57.346;12.150;2023-04-06T15:10:53;11.70;1.00
14277;DHT22;7222;57.346;12.150;2023-04-06T15:13:22;11.90;1.00
14277;DHT22;7222;57.346;12.150;2023-04-06T15:15:50;11.70;1.00
14277;DHT22;7222;57.346;12.150;2023-04-06T15:18:20;11.90;1.00
14277;DHT22;7222;57.346;12.150;2023-04-06T15:20:47;10.40;1.00
14277;DHT22;7222;57.346;12.150;2023-04-06T15:23:14;11.20;1.00
14277;DHT22;7222;57.346;12.150;2023-04-06T15:25:41;10.80;1.00
14277;DHT22;7222;57.346;12.150;2023-04-06T15:28:08;11.50;1.00
14277;DHT22;7222;57.346;12.150;2023-04-06T15:30:35;11.30;1.00
14277;DHT22;7222;57.346;12.150;2023-04-06T15:33:04;10.90;1.00
14277;DHT22;7222;57.346;12.150;2023-04-06T15:35:34;10.70;1.00
14277;DHT22;7222;57.346;12.150;2023-04-06T15:38:05;10.80;1.00
14277;DHT22;7222;57.346;12.150;2023-04-06T15:40:32;11.10;1.00
14277;DHT22;7222;57.346;12.150;2023-04-06T15:42:59;11.00;1.00
14277;DHT22;7222;57.346;12.150;2023-04-06T15:45:26;10.80;1.00
14277;DHT22;7222;57.346;12.150;2023-04-06T15:47:53;10.70;1.00
14277;DHT22;7222;57.346;12.150;2023-04-06T15:50:20;10.60;1.00
14277;DHT22;7222;57.346;12.150;2023-04-06T15:52:49;10.90;1.00
14277;DHT22;7222;57.346;12.150;2023-04-06T15:55:16;10.70;1.00